Time;durP1;ratioP1;P1;durP2;ratioP2;P2;SDS_P1;SDS_P2;PMS_P1;PMS_P2;Temp;Humidity;BMP_temperature;BMP_pressure;BME280_temperature;BME280_humidity;BME280_pressure;Samples;Min_cycle;Max_cycle;Signal;HPM_P1;HPM_P2
2022/09/28 00:01:44;;;;;;;0.60;0.50;;;;;;;;;;5119495;27;20479;-80
2022/09/28 00:04:11;;;;;;;0.60;0.60;;;;;;;;;;5128524;27;20473;-79
2022/09/28 00:06:41;;;;;;;0.60;0.60;;;;;;;;;;5124153;27;20540;-79
2022/09/28 00:09:08;;;;;;;0.60;0.50;;;;;;;;;;5131236;27;20528;-79
2022/09/28 00:11:37;;;;;;;0.60;0.60;;;;;;;;;;5141785;27;20438;-79
2022/09/28 00:14:06;;;;;;;0.70;0.70;;;;;;;;;;5155562;27;20483;-79
2022/09/28 00:16:33;;;;;;;0.70;0.60;;;;;;;;;;5145490;27;20457;-78
2022/09/28 00:19:00;;;;;;;0.60;0.60;;;;;;;;;;5132127;27;20446;-79
2022/09/28 00:21:28;;;;;;;0.60;0.60;;;;;;;;;;5129242;27;20565;-81
2022/09/28 00:24:11;;;;;;;0.70;0.70;;;;;;;;;;5127809;27;20436;-81
2022/09/28 00:26:43;;;;;;;0.60;0.50;;;;;;;;;;5145465;27;20429;-81
2022/09/28 00:29:16;;;;;;;0.70;0.70;;;;;;;;;;5149265;27;20429;-81
2022/09/28 00:31:44;;;;;;;0.60;0.60;;;;;;;;;;5109318;27;20453;-80
2022/09/28 00:34:11;;;;;;;0.60;0.60;;;;;;;;;;5108494;27;20507;-80
2022/09/28 00:36:42;;;;;;;0.60;0.60;;;;;;;;;;5122209;27;20512;-80
2022/09/28 00:39:14;;;;;;;0.60;0.60;;;;;;;;;;5137949;27;20971;-79
2022/09/28 00:41:43;;;;;;;0.70;0.63;;;;;;;;;;5109463;27;20952;-79
2022/09/28 00:44:29;;;;;;;0.60;0.60;;;;;;;;;;5118937;27;20441;-78
2022/09/28 00:47:02;;;;;;;0.60;0.60;;;;;;;;;;5113248;27;20481;-80
2022/09/28 00:49:31;;;;;;;0.70;0.70;;;;;;;;;;5140488;27;20425;-81
2022/09/28 00:52:00;;;;;;;0.60;0.50;;;;;;;;;;5106671;27;20467;-81
2022/09/28 00:54:31;;;;;;;0.60;0.60;;;;;;;;;;5109911;27;20452;-80
2022/09/28 00:57:03;;;;;;;0.60;0.60;;;;;;;;;;5109435;27;20441;-79
2022/09/28 00:59:35;;;;;;;0.70;0.70;;;;;;;;;;5130500;27;20493;-79
2022/09/28 01:02:06;;;;;;;0.60;0.60;;;;;;;;;;5123817;27;20541;-79
2022/09/28 01:04:35;;;;;;;0.60;0.60;;;;;;;;;;5116184;27;20445;-79
2022/09/28 01:07:08;;;;;;;0.60;0.50;;;;;;;;;;5123121;27;20494;-79
2022/09/28 01:09:39;;;;;;;0.60;0.60;;;;;;;;;;5126394;27;20488;-79
2022/09/28 01:12:09;;;;;;;0.60;0.60;;;;;;;;;;5126025;27;20436;-79
2022/09/28 01:14:42;;;;;;;0.60;0.60;;;;;;;;;;5141915;27;20476;-79
2022/09/28 01:17:13;;;;;;;0.60;0.60;;;;;;;;;;5108344;27;20468;-78
2022/09/28 01:20:06;;;;;;;0.60;0.60;;;;;;;;;;5126324;27;20452;-77
2022/09/28 01:22:52;;;;;;;0.60;0.60;;;;;;;;;;5104746;27;20452;-77
2022/09/28 01:25:37;;;;;;;0.60;0.60;;;;;;;;;;5116123;27;20454;-80
2022/09/28 01:28:08;;;;;;;0.70;0.70;;;;;;;;;;5132448;27;20923;-78
2022/09/28 01:30:41;;;;;;;0.60;0.60;;;;;;;;;;5133481;27;20951;-79
2022/09/28 01:33:21;;;;;;;0.60;0.60;;;;;;;;;;5105647;27;20979;-79
2022/09/28 01:36:11;;;;;;;0.60;0.53;;;;;;;;;;5131050;27;20478;-79
2022/09/28 01:38:43;;;;;;;1.93;0.93;;;;;;;;;;5108646;27;20455;-78
2022/09/28 01:41:17;;;;;;;0.60;0.50;;;;;;;;;;5142190;27;20513;-79
2022/09/28 01:43:51;;;;;;;0.60;0.60;;;;;;;;;;5111672;27;20865;-79
2022/09/28 01:46:26;;;;;;;0.60;0.60;;;;;;;;;;5113563;27;20512;-79
2022/09/28 01:49:05;;;;;;;0.67;0.63;;;;;;;;;;5084586;27;20454;-78
2022/09/28 01:51:37;;;;;;;0.60;0.60;;;;;;;;;;5128000;27;20468;-79
2022/09/28 01:54:14;;;;;;;0.60;0.57;;;;;;;;;;5105589;27;20490;-78
2022/09/28 01:56:47;;;;;;;0.60;0.60;;;;;;;;;;5133876;27;20599;-79
2022/09/28 01:59:21;;;;;;;0.60;0.50;;;;;;;;;;5106797;27;20524;-77
2022/09/28 02:01:52;;;;;;;0.90;0.87;;;;;;;;;;5140929;27;20425;-77
2022/09/28 02:04:27;;;;;;;0.60;0.60;;;;;;;;;;5104268;27;20446;-79
2022/09/28 02:07:10;;;;;;;0.60;0.60;;;;;;;;;;5106537;28;21044;-78
2022/09/28 02:09:45;;;;;;;0.60;0.60;;;;;;;;;;5111261;27;20440;-79
2022/09/28 02:12:15;;;;;;;0.60;0.57;;;;;;;;;;5118598;27;20774;-78
2022/09/28 02:14:46;;;;;;;0.60;0.60;;;;;;;;;;5124008;27;20451;-78
2022/09/28 02:17:15;;;;;;;0.60;0.60;;;;;;;;;;5143794;27;20512;-79
2022/09/28 02:19:45;;;;;;;0.60;0.60;;;;;;;;;;5125108;27;20455;-79
2022/09/28 02:22:22;;;;;;;0.60;0.60;;;;;;;;;;5108224;27;20476;-79
2022/09/28 02:24:52;;;;;;;0.60;0.60;;;;;;;;;;5136725;27;20929;-79
2022/09/28 02:27:31;;;;;;;0.60;0.60;;;;;;;;;;5131946;27;20488;-79
2022/09/28 02:29:59;;;;;;;0.70;0.70;;;;;;;;;;5126868;27;20519;-78
2022/09/28 02:32:30;;;;;;;0.60;0.60;;;;;;;;;;5128352;27;20451;-79
2022/09/28 02:34:58;;;;;;;0.60;0.60;;;;;;;;;;5112339;27;20444;-79
2022/09/28 02:37:25;;;;;;;0.60;0.60;;;;;;;;;;5106246;27;21012;-78
2022/09/28 02:39:52;;;;;;;0.60;0.60;;;;;;;;;;5124740;27;20940;-78
2022/09/28 02:42:20;;;;;;;0.60;0.50;;;;;;;;;;5123593;27;20452;-78
2022/09/28 02:44:56;;;;;;;0.60;0.60;;;;;;;;;;5123906;27;20441;-79
2022/09/28 02:47:33;;;;;;;0.60;0.60;;;;;;;;;;5127233;27;20482;-79
2022/09/28 02:50:04;;;;;;;0.70;0.60;;;;;;;;;;5121384;27;20458;-79
2022/09/28 02:52:47;;;;;;;0.60;0.50;;;;;;;;;;5110125;27;20512;-80
2022/09/28 02:55:19;;;;;;;0.60;0.60;;;;;;;;;;5100052;27;20484;-79
2022/09/28 02:57:54;;;;;;;0.60;0.60;;;;;;;;;;5123703;27;20483;-79
2022/09/28 03:00:22;;;;;;;0.60;0.60;;;;;;;;;;5132178;27;20431;-78
2022/09/28 03:02:55;;;;;;;0.60;0.60;;;;;;;;;;5126137;27;20444;-79
2022/09/28 03:05:24;;;;;;;0.60;0.60;;;;;;;;;;5113159;27;20850;-79
2022/09/28 03:07:55;;;;;;;0.60;0.60;;;;;;;;;;5131341;27;20924;-79
2022/09/28 03:10:25;;;;;;;0.60;0.60;;;;;;;;;;5143571;27;20427;-78
2022/09/28 03:12:53;;;;;;;0.60;0.60;;;;;;;;;;5125472;27;20778;-79
2022/09/28 03:15:21;;;;;;;0.60;0.60;;;;;;;;;;5106353;27;20448;-79
2022/09/28 03:17:48;;;;;;;0.60;0.60;;;;;;;;;;5116819;27;20466;-80
2022/09/28 03:20:17;;;;;;;0.70;0.70;;;;;;;;;;5127964;27;20794;-79
2022/09/28 03:22:45;;;;;;;0.60;0.60;;;;;;;;;;5122104;27;20451;-79
2022/09/28 03:25:31;;;;;;;0.63;0.63;;;;;;;;;;5138084;27;20522;-80
2022/09/28 03:27:59;;;;;;;0.83;0.83;;;;;;;;;;5131695;27;20479;-80
2022/09/28 03:30:28;;;;;;;0.60;0.60;;;;;;;;;;5122788;27;20469;-79
2022/09/28 03:32:58;;;;;;;0.70;0.60;;;;;;;;;;5125479;27;20528;-79
2022/09/28 03:35:30;;;;;;;0.60;0.50;;;;;;;;;;5115163;27;20436;-80
2022/09/28 03:37:57;;;;;;;0.60;0.50;;;;;;;;;;5129993;27;20466;-79
2022/09/28 03:40:27;;;;;;;0.80;0.80;;;;;;;;;;5108383;27;20482;-80
2022/09/28 03:42:54;;;;;;;0.80;0.80;;;;;;;;;;5131079;27;21033;-79
2022/09/28 03:45:20;;;;;;;0.70;0.63;;;;;;;;;;5130564;27;20444;-80
2022/09/28 03:47:49;;;;;;;1.13;0.97;;;;;;;;;;5136298;27;20429;-80
2022/09/28 03:50:17;;;;;;;0.70;0.70;;;;;;;;;;5107932;27;20501;-80
2022/09/28 03:52:45;;;;;;;0.80;0.73;;;;;;;;;;5113503;27;20493;-78
2022/09/28 03:55:12;;;;;;;0.60;0.57;;;;;;;;;;5096131;27;20525;-77
2022/09/28 03:57:39;;;;;;;0.60;0.60;;;;;;;;;;5127186;27;20477;-80
2022/09/28 04:00:06;;;;;;;0.60;0.60;;;;;;;;;;5109565;27;20473;-79
2022/09/28 04:02:40;;;;;;;0.60;0.60;;;;;;;;;;5134015;27;20782;-80
2022/09/28 04:05:08;;;;;;;0.70;0.60;;;;;;;;;;5113081;27;20793;-79
2022/09/28 04:07:36;;;;;;;0.70;0.70;;;;;;;;;;5126230;27;20445;-80
2022/09/28 04:10:05;;;;;;;0.60;0.60;;;;;;;;;;5127382;27;20446;-79
2022/09/28 04:12:32;;;;;;;1.57;1.47;;;;;;;;;;5134815;27;20968;-79
2022/09/28 04:14:58;;;;;;;1.20;1.10;;;;;;;;;;5132135;27;20443;-77
2022/09/28 04:17:25;;;;;;;0.60;0.60;;;;;;;;;;5129617;27;20465;-76
2022/09/28 04:19:54;;;;;;;0.60;0.60;;;;;;;;;;5123455;27;20463;-77
2022/09/28 04:22:36;;;;;;;0.60;0.60;;;;;;;;;;5103949;27;20435;-76
2022/09/28 04:25:05;;;;;;;0.60;0.60;;;;;;;;;;5128885;27;20945;-78
2022/09/28 04:30:18;;;;;;;0.60;0.60;;;;;;;;;;5121806;27;20446;-77
2022/09/28 04:32:45;;;;;;;0.60;0.60;;;;;;;;;;5128860;27;20433;-79
2022/09/28 04:35:12;;;;;;;0.60;0.60;;;;;;;;;;5123411;27;20456;-79
2022/09/28 04:37:39;;;;;;;1.20;1.13;;;;;;;;;;5102982;27;20469;-79
2022/09/28 04:40:08;;;;;;;0.87;0.87;;;;;;;;;;5135489;27;20450;-79
2022/09/28 04:42:36;;;;;;;0.60;0.60;;;;;;;;;;5126062;27;20447;-79
2022/09/28 04:45:03;;;;;;;0.60;0.60;;;;;;;;;;5104509;27;20445;-79
2022/09/28 04:47:32;;;;;;;0.80;0.80;;;;;;;;;;5102027;27;20821;-79
2022/09/28 04:50:14;;;;;;;0.60;0.60;;;;;;;;;;5144020;27;20459;-79
2022/09/28 04:53:00;;;;;;;0.63;0.53;;;;;;;;;;5130442;27;20413;-79
2022/09/28 04:55:31;;;;;;;0.60;0.60;;;;;;;;;;5129798;27;20485;-78
2022/09/28 04:58:02;;;;;;;0.60;0.60;;;;;;;;;;5128030;27;20483;-80
2022/09/28 05:00:34;;;;;;;0.60;0.60;;;;;;;;;;5109910;27;20446;-78
2022/09/28 05:03:08;;;;;;;0.73;0.73;;;;;;;;;;5136075;27;20477;-81
2022/09/28 05:05:58;;;;;;;0.60;0.60;;;;;;;;;;5139051;27;20470;-80
2022/09/28 05:08:38;;;;;;;0.70;0.70;;;;;;;;;;5123389;27;20803;-79
2022/09/28 05:11:09;;;;;;;0.60;0.60;;;;;;;;;;5136330;27;20849;-80
2022/09/28 05:13:40;;;;;;;0.60;0.60;;;;;;;;;;5125412;27;20501;-79
2022/09/28 05:16:08;;;;;;;0.60;0.60;;;;;;;;;;5127068;27;20443;-80
2022/09/28 05:18:53;;;;;;;0.60;0.50;;;;;;;;;;5111766;27;20520;-81
2022/09/28 05:21:20;;;;;;;1.03;1.03;;;;;;;;;;5109626;27;20481;-80
2022/09/28 05:23:47;;;;;;;0.60;0.60;;;;;;;;;;5112554;27;20442;-81
2022/09/28 05:26:18;;;;;;;2.40;1.00;;;;;;;;;;5126321;27;20452;-82
2022/09/28 05:28:44;;;;;;;0.60;0.60;;;;;;;;;;5101994;27;20993;-80
2022/09/28 05:31:34;;;;;;;0.67;0.67;;;;;;;;;;5130399;27;20442;-80
2022/09/28 05:34:22;;;;;;;0.60;0.60;;;;;;;;;;5127016;27;20450;-79
2022/09/28 05:36:48;;;;;;;0.60;0.57;;;;;;;;;;5110479;27;20480;-80
2022/09/28 05:39:17;;;;;;;0.60;0.60;;;;;;;;;;5120764;27;20494;-81
2022/09/28 05:41:46;;;;;;;0.60;0.60;;;;;;;;;;5146828;27;20427;-80
2022/09/28 05:44:12;;;;;;;1.40;1.00;;;;;;;;;;5123748;27;20441;-81
2022/09/28 05:46:40;;;;;;;0.60;0.60;;;;;;;;;;5130919;27;20449;-82
2022/09/28 05:49:11;;;;;;;0.60;0.60;;;;;;;;;;5103857;27;20504;-80
2022/09/28 05:51:40;;;;;;;0.60;0.60;;;;;;;;;;5115767;27;20981;-81
2022/09/28 05:54:08;;;;;;;0.63;0.63;;;;;;;;;;5129623;27;20435;-81
2022/09/28 05:56:40;;;;;;;0.60;0.60;;;;;;;;;;5129361;27;20857;-80
2022/09/28 05:59:12;;;;;;;0.80;0.80;;;;;;;;;;5133263;27;20524;-80
2022/09/28 06:01:41;;;;;;;1.10;0.93;;;;;;;;;;5146331;27;20493;-80
2022/09/28 06:04:09;;;;;;;0.60;0.60;;;;;;;;;;5096251;27;20488;-81
2022/09/28 06:06:39;;;;;;;0.70;0.70;;;;;;;;;;5092362;28;20471;-81
2022/09/28 06:09:06;;;;;;;1.03;0.97;;;;;;;;;;5123710;27;20457;-80
2022/09/28 06:11:47;;;;;;;0.60;0.60;;;;;;;;;;5112218;27;20955;-80
2022/09/28 06:14:32;;;;;;;0.90;0.83;;;;;;;;;;5130682;27;20452;-80
2022/09/28 06:17:00;;;;;;;1.13;1.07;;;;;;;;;;5109732;27;20516;-80
2022/09/28 06:19:28;;;;;;;0.60;0.57;;;;;;;;;;5129691;27;20537;-81
2022/09/28 06:22:06;;;;;;;0.70;0.70;;;;;;;;;;5130201;27;20551;-80
2022/09/28 06:24:42;;;;;;;0.60;0.60;;;;;;;;;;5112171;27;20460;-80
2022/09/28 06:27:10;;;;;;;0.60;0.60;;;;;;;;;;5111712;27;20437;-78
2022/09/28 06:29:38;;;;;;;0.60;0.60;;;;;;;;;;5104657;27;20487;-78
2022/09/28 06:32:06;;;;;;;0.60;0.60;;;;;;;;;;5122648;27;20803;-79
2022/09/28 06:34:34;;;;;;;0.60;0.60;;;;;;;;;;5130809;27;20487;-81
2022/09/28 06:37:03;;;;;;;0.60;0.60;;;;;;;;;;5121713;27;20558;-80
2022/09/28 06:39:31;;;;;;;0.63;0.63;;;;;;;;;;5124152;27;20484;-79
2022/09/28 06:42:02;;;;;;;0.60;0.60;;;;;;;;;;5144214;27;20471;-81
2022/09/28 06:44:51;;;;;;;0.60;0.60;;;;;;;;;;5132277;27;20795;-81
2022/09/28 06:47:32;;;;;;;0.60;0.60;;;;;;;;;;5128251;27;20439;-80
2022/09/28 06:50:13;;;;;;;0.60;0.60;;;;;;;;;;5114737;27;20461;-78
2022/09/28 06:52:50;;;;;;;0.60;0.60;;;;;;;;;;5117306;27;21051;-78
2022/09/28 06:55:38;;;;;;;0.60;0.60;;;;;;;;;;5109955;27;20811;-81
2022/09/28 06:58:06;;;;;;;0.60;0.60;;;;;;;;;;5128070;27;20477;-78
2022/09/28 07:00:36;;;;;;;0.60;0.60;;;;;;;;;;5106667;27;20500;-78
2022/09/28 07:03:08;;;;;;;0.60;0.50;;;;;;;;;;5112498;27;20442;-77
2022/09/28 07:05:57;;;;;;;1.70;1.03;;;;;;;;;;5126337;27;20565;-79
2022/09/28 07:09:01;;;;;;;0.63;0.63;;;;;;;;;;5093264;28;20476;-79
2022/09/28 07:12:12;;;;;;;0.70;0.70;;;;;;;;;;5119542;27;20443;-79
2022/09/28 07:14:57;;;;;;;1.00;0.90;;;;;;;;;;5130396;27;20427;-79
2022/09/28 07:17:28;;;;;;;0.70;0.70;;;;;;;;;;5131535;27;20568;-79
2022/09/28 07:19:58;;;;;;;0.60;0.60;;;;;;;;;;5115903;27;20447;-79
2022/09/28 07:22:41;;;;;;;1.30;1.20;;;;;;;;;;5116506;28;20946;-79
2022/09/28 07:25:17;;;;;;;0.60;0.60;;;;;;;;;;5125821;27;20477;-80
2022/09/28 07:28:03;;;;;;;1.10;1.10;;;;;;;;;;5130379;27;20534;-79
2022/09/28 07:30:51;;;;;;;1.70;1.43;;;;;;;;;;5106094;27;20429;-79
2022/09/28 07:33:41;;;;;;;0.60;0.60;;;;;;;;;;5145049;27;20463;-79
2022/09/28 07:36:22;;;;;;;0.80;0.80;;;;;;;;;;5124997;27;20550;-79
2022/09/28 07:38:51;;;;;;;0.60;0.60;;;;;;;;;;5128590;27;21039;-78
2022/09/28 07:41:31;;;;;;;0.70;0.70;;;;;;;;;;5131480;27;20469;-79
2022/09/28 07:44:04;;;;;;;0.63;0.60;;;;;;;;;;5128328;27;20451;-80
2022/09/28 07:46:35;;;;;;;0.60;0.53;;;;;;;;;;5111079;27;20456;-78
2022/09/28 07:49:11;;;;;;;0.60;0.57;;;;;;;;;;5126693;27;20445;-79
2022/09/28 07:51:55;;;;;;;0.60;0.60;;;;;;;;;;5109038;27;20501;-77
2022/09/28 07:54:23;;;;;;;0.60;0.60;;;;;;;;;;5140904;27;20772;-79
2022/09/28 07:57:05;;;;;;;0.60;0.60;;;;;;;;;;5132162;27;20443;-79
2022/09/28 07:59:48;;;;;;;0.60;0.60;;;;;;;;;;5129271;27;20427;-76
2022/09/28 08:02:44;;;;;;;0.60;0.60;;;;;;;;;;5126561;27;20454;-77
2022/09/28 08:05:17;;;;;;;0.60;0.60;;;;;;;;;;5114194;27;20493;-76
2022/09/28 08:07:44;;;;;;;0.60;0.60;;;;;;;;;;5143600;27;20467;-76
2022/09/28 08:10:12;;;;;;;0.80;0.80;;;;;;;;;;5098332;27;20455;-75
2022/09/28 08:12:46;;;;;;;0.60;0.50;;;;;;;;;;5126718;27;20481;-75
2022/09/28 08:15:41;;;;;;;0.60;0.60;;;;;;;;;;5143311;27;20424;-77
2022/09/28 08:18:19;;;;;;;0.70;0.70;;;;;;;;;;5132044;27;20832;-76
2022/09/28 08:23:37;;;;;;;0.60;0.60;;;;;;;;;;5125946;27;20436;-78
2022/09/28 08:26:05;;;;;;;0.60;0.60;;;;;;;;;;5126793;27;20458;-79
2022/09/28 08:28:34;;;;;;;0.63;0.63;;;;;;;;;;5114823;27;20446;-77
2022/09/28 08:31:19;;;;;;;0.70;0.70;;;;;;;;;;5121468;27;20451;-77
2022/09/28 08:34:07;;;;;;;0.70;0.70;;;;;;;;;;5112088;27;20440;-78
2022/09/28 08:37:01;;;;;;;0.60;0.60;;;;;;;;;;5115158;27;20533;-77
2022/09/28 08:39:48;;;;;;;0.70;0.70;;;;;;;;;;5141709;27;20987;-77
2022/09/28 08:42:38;;;;;;;0.70;0.70;;;;;;;;;;5132600;27;20513;-78
2022/09/28 08:45:14;;;;;;;0.70;0.70;;;;;;;;;;5137715;27;20531;-78
2022/09/28 08:51:17;;;;;;;0.60;0.60;;;;;;;;;;5144044;27;20547;-77
2022/09/28 08:54:03;;;;;;;0.73;0.73;;;;;;;;;;5128888;27;20802;-77
2022/09/28 08:56:48;;;;;;;0.60;0.60;;;;;;;;;;5122270;27;20474;-75
2022/09/28 08:59:20;;;;;;;0.80;0.80;;;;;;;;;;5119811;27;20492;-75
2022/09/28 09:01:57;;;;;;;0.70;0.70;;;;;;;;;;5131088;27;20440;-76
2022/09/28 09:04:25;;;;;;;0.70;0.70;;;;;;;;;;5117683;27;20453;-76
2022/09/28 09:07:08;;;;;;;0.70;0.70;;;;;;;;;;5139485;27;20919;-76
2022/09/28 09:09:46;;;;;;;0.70;0.70;;;;;;;;;;5118886;27;20450;-77
2022/09/28 09:12:17;;;;;;;0.70;0.67;;;;;;;;;;5131395;27;20445;-77
2022/09/28 09:15:07;;;;;;;0.67;0.63;;;;;;;;;;5108782;27;20452;-77
2022/09/28 09:17:40;;;;;;;0.80;0.80;;;;;;;;;;5096861;27;20455;-77
2022/09/28 09:20:36;;;;;;;0.70;0.70;;;;;;;;;;5129030;27;20561;-78
2022/09/28 09:23:13;;;;;;;0.70;0.70;;;;;;;;;;5111171;27;20484;-77
2022/09/28 09:25:48;;;;;;;0.70;0.60;;;;;;;;;;5127778;27;20434;-77
2022/09/28 09:28:37;;;;;;;0.70;0.70;;;;;;;;;;5124225;27;20437;-77
2022/09/28 09:31:09;;;;;;;0.70;0.60;;;;;;;;;;5121941;27;20430;-77
2022/09/28 09:33:55;;;;;;;0.70;0.70;;;;;;;;;;5104410;27;20845;-76
2022/09/28 09:36:49;;;;;;;0.70;0.70;;;;;;;;;;5139284;27;20456;-76
2022/09/28 09:39:42;;;;;;;0.70;0.60;;;;;;;;;;5128956;27;20461;-77
2022/09/28 09:42:34;;;;;;;0.70;0.70;;;;;;;;;;5150762;27;20417;-77
2022/09/28 09:45:30;;;;;;;0.70;0.60;;;;;;;;;;5123385;27;20419;-76
2022/09/28 09:48:20;;;;;;;0.70;0.70;;;;;;;;;;5129376;27;20946;-76
2022/09/28 09:50:48;;;;;;;0.70;0.60;;;;;;;;;;5105733;27;20471;-75
2022/09/28 09:53:17;;;;;;;0.70;0.70;;;;;;;;;;5112848;27;20492;-76
2022/09/28 09:55:49;;;;;;;0.80;0.80;;;;;;;;;;5143897;27;20444;-75
2022/09/28 09:58:37;;;;;;;0.80;0.70;;;;;;;;;;5101404;27;20495;-77
2022/09/28 10:01:23;;;;;;;0.80;0.80;;;;;;;;;;5106009;27;20448;-76
2022/09/28 10:04:24;;;;;;;0.73;0.73;;;;;;;;;;5117297;27;20478;-75
2022/09/28 10:06:57;;;;;;;0.77;0.70;;;;;;;;;;5116755;27;21076;-75
2022/09/28 10:09:33;;;;;;;0.70;0.70;;;;;;;;;;5135774;27;20536;-75
2022/09/28 10:12:19;;;;;;;0.80;0.73;;;;;;;;;;5126834;27;20536;-76
2022/09/28 10:14:54;;;;;;;0.70;0.60;;;;;;;;;;5099743;27;21308;-77
2022/09/28 10:17:26;;;;;;;0.70;0.60;;;;;;;;;;5124901;27;20452;-76
2022/09/28 10:20:20;;;;;;;0.70;0.70;;;;;;;;;;5113165;27;20470;-76
2022/09/28 10:23:01;;;;;;;0.70;0.60;;;;;;;;;;5120871;27;20969;-76
2022/09/28 10:25:31;;;;;;;1.07;0.97;;;;;;;;;;5112428;27;20456;-76
2022/09/28 10:27:59;;;;;;;0.70;0.70;;;;;;;;;;5121623;27;20439;-76
2022/09/28 10:30:33;;;;;;;0.80;0.80;;;;;;;;;;5097364;27;20457;-76
2022/09/28 10:33:25;;;;;;;0.70;0.70;;;;;;;;;;5142662;27;20453;-75
2022/09/28 10:35:56;;;;;;;0.70;0.70;;;;;;;;;;5109429;27;20467;-76
2022/09/28 10:38:23;;;;;;;0.80;0.73;;;;;;;;;;5121014;27;20990;-77
2022/09/28 10:40:57;;;;;;;0.70;0.70;;;;;;;;;;5107317;27;20999;-76
2022/09/28 10:44:04;;;;;;;0.70;0.70;;;;;;;;;;5129394;27;21221;-76
2022/09/28 10:47:08;;;;;;;0.80;0.80;;;;;;;;;;5107289;27;20457;-77
2022/09/28 10:49:43;;;;;;;0.80;0.80;;;;;;;;;;5106767;27;20450;-78
2022/09/28 10:52:29;;;;;;;0.80;0.80;;;;;;;;;;5129787;27;20463;-77
2022/09/28 10:55:02;;;;;;;0.77;0.77;;;;;;;;;;5108375;27;20472;-75
2022/09/28 10:57:33;;;;;;;0.70;0.70;;;;;;;;;;5116690;27;20900;-77
2022/09/28 11:00:27;;;;;;;0.70;0.60;;;;;;;;;;5120123;27;20467;-76
2022/09/28 11:03:18;;;;;;;0.70;0.70;;;;;;;;;;5121971;27;20457;-76
2022/09/28 11:05:52;;;;;;;0.70;0.70;;;;;;;;;;5119174;28;20507;-75
2022/09/28 11:08:23;;;;;;;0.80;0.70;;;;;;;;;;5126201;27;20470;-78
2022/09/28 11:11:00;;;;;;;0.70;0.70;;;;;;;;;;5125484;27;20449;-76
2022/09/28 11:13:27;;;;;;;0.70;0.70;;;;;;;;;;5123744;27;20541;-76
2022/09/28 11:16:02;;;;;;;0.70;0.70;;;;;;;;;;5115672;27;20804;-74
2022/09/28 11:18:36;;;;;;;0.80;0.80;;;;;;;;;;5127135;27;20939;-77
2022/09/28 11:21:09;;;;;;;0.80;0.80;;;;;;;;;;5129375;27;20497;-75
2022/09/28 11:23:54;;;;;;;0.70;0.60;;;;;;;;;;5127554;27;20776;-74
2022/09/28 11:26:22;;;;;;;0.70;0.70;;;;;;;;;;5151410;27;20446;-76
2022/09/28 11:28:50;;;;;;;0.70;0.60;;;;;;;;;;5126004;27;20456;-76
2022/09/28 11:31:27;;;;;;;0.73;0.70;;;;;;;;;;5120602;27;20439;-76
2022/09/28 11:34:05;;;;;;;0.80;0.70;;;;;;;;;;5112536;27;20453;-76
2022/09/28 11:36:50;;;;;;;0.70;0.70;;;;;;;;;;5128217;27;20531;-76
2022/09/28 11:39:21;;;;;;;0.70;0.60;;;;;;;;;;5130977;27;20467;-74
2022/09/28 11:41:58;;;;;;;0.70;0.70;;;;;;;;;;5132456;27;20879;-74
2022/09/28 11:44:37;;;;;;;0.70;0.70;;;;;;;;;;5115248;27;20460;-76
2022/09/28 11:47:29;;;;;;;0.80;0.80;;;;;;;;;;5090648;27;20478;-76
2022/09/28 11:50:00;;;;;;;0.70;0.70;;;;;;;;;;5109683;27;20444;-74
2022/09/28 11:52:34;;;;;;;0.80;0.80;;;;;;;;;;5132959;27;20471;-75
2022/09/28 11:55:05;;;;;;;0.70;0.60;;;;;;;;;;5150692;27;20510;-75
2022/09/28 11:57:35;;;;;;;0.70;0.70;;;;;;;;;;5133321;27;20451;-74
2022/09/28 12:00:06;;;;;;;0.70;0.70;;;;;;;;;;5123510;27;20477;-77
2022/09/28 12:02:45;;;;;;;0.70;0.60;;;;;;;;;;5124471;27;20874;-77
2022/09/28 12:05:18;;;;;;;0.70;0.70;;;;;;;;;;5128416;27;20448;-76
2022/09/28 12:07:51;;;;;;;0.90;0.80;;;;;;;;;;5144381;27;20445;-75
2022/09/28 12:10:55;;;;;;;0.70;0.70;;;;;;;;;;5095022;27;20532;-76
2022/09/28 12:13:46;;;;;;;0.80;0.70;;;;;;;;;;5139291;27;20431;-76
2022/09/28 12:16:16;;;;;;;0.80;0.73;;;;;;;;;;5126432;27;20456;-76
2022/09/28 12:19:05;;;;;;;0.77;0.70;;;;;;;;;;5143243;27;21008;-76
2022/09/28 12:21:36;;;;;;;0.70;0.67;;;;;;;;;;5142993;27;20471;-76
2022/09/28 12:24:10;;;;;;;0.70;0.70;;;;;;;;;;5120972;27;20458;-76
2022/09/28 12:26:41;;;;;;;0.70;0.60;;;;;;;;;;5107167;27;20448;-76
2022/09/28 12:29:10;;;;;;;0.70;0.67;;;;;;;;;;5124214;27;20935;-77
2022/09/28 12:31:40;;;;;;;0.70;0.70;;;;;;;;;;5146053;27;20444;-74
2022/09/28 12:34:08;;;;;;;0.70;0.60;;;;;;;;;;5145414;27;20439;-75
2022/09/28 12:36:46;;;;;;;0.70;0.70;;;;;;;;;;5088878;27;20469;-74
2022/09/28 12:39:25;;;;;;;0.73;0.73;;;;;;;;;;5140382;27;20469;-76
2022/09/28 12:42:19;;;;;;;0.90;0.90;;;;;;;;;;5113248;27;20456;-75
2022/09/28 12:44:55;;;;;;;0.70;0.60;;;;;;;;;;5122454;27;20424;-75
2022/09/28 12:47:46;;;;;;;0.70;0.60;;;;;;;;;;5130117;27;20452;-74
2022/09/28 12:50:17;;;;;;;0.70;0.70;;;;;;;;;;5123572;27;20482;-75
2022/09/28 12:53:12;;;;;;;0.70;0.70;;;;;;;;;;5109982;27;20496;-76
2022/09/28 12:55:53;;;;;;;0.70;0.70;;;;;;;;;;5146626;27;20439;-76
2022/09/28 12:58:27;;;;;;;0.70;0.60;;;;;;;;;;5140114;27;20486;-76
2022/09/28 13:01:00;;;;;;;2.10;2.00;;;;;;;;;;5105708;27;20461;-74
2022/09/28 13:03:37;;;;;;;0.70;0.60;;;;;;;;;;5127298;27;20447;-76
2022/09/28 13:06:14;;;;;;;0.70;0.70;;;;;;;;;;5140595;27;20892;-75
2022/09/28 13:08:48;;;;;;;0.70;0.60;;;;;;;;;;5155870;27;20427;-76
2022/09/28 13:11:22;;;;;;;0.70;0.70;;;;;;;;;;5143813;27;20443;-77
2022/09/28 13:13:55;;;;;;;0.77;0.73;;;;;;;;;;5136933;27;20455;-76
2022/09/28 13:16:25;;;;;;;0.70;0.70;;;;;;;;;;5154482;27;20453;-76
2022/09/28 13:18:58;;;;;;;0.70;0.70;;;;;;;;;;5127588;27;20451;-76
2022/09/28 13:21:30;;;;;;;0.80;0.70;;;;;;;;;;5135506;27;20464;-75
2022/09/28 13:23:59;;;;;;;0.80;0.80;;;;;;;;;;5146078;27;20502;-76
2022/09/28 13:26:48;;;;;;;0.70;0.70;;;;;;;;;;5142908;27;20548;-76
2022/09/28 13:29:18;;;;;;;0.70;0.70;;;;;;;;;;5102928;27;20436;-77
2022/09/28 13:32:10;;;;;;;0.70;0.60;;;;;;;;;;5146659;27;20490;-75
2022/09/28 13:34:38;;;;;;;0.70;0.70;;;;;;;;;;5120220;27;20447;-76
2022/09/28 13:37:23;;;;;;;0.70;0.70;;;;;;;;;;5118299;27;20452;-75
2022/09/28 13:39:52;;;;;;;0.80;0.77;;;;;;;;;;5150408;27;20459;-75
2022/09/28 13:42:38;;;;;;;0.70;0.70;;;;;;;;;;5133485;27;20449;-76
2022/09/28 13:45:21;;;;;;;0.70;0.70;;;;;;;;;;5128745;27;20991;-75
2022/09/28 13:47:55;;;;;;;0.70;0.70;;;;;;;;;;5127184;27;20453;-75
2022/09/28 13:50:32;;;;;;;0.80;0.80;;;;;;;;;;5145170;27;20526;-75
2022/09/28 13:53:01;;;;;;;0.80;0.77;;;;;;;;;;5122346;27;20455;-75
2022/09/28 13:55:33;;;;;;;0.70;0.60;;;;;;;;;;5124317;27;20543;-73
2022/09/28 13:58:03;;;;;;;0.80;0.80;;;;;;;;;;5101689;27;20460;-74
2022/09/28 14:00:35;;;;;;;0.70;0.70;;;;;;;;;;5130013;27;20521;-75
2022/09/28 14:03:13;;;;;;;0.70;0.70;;;;;;;;;;5137189;27;20818;-76
2022/09/28 14:05:47;;;;;;;0.80;0.80;;;;;;;;;;5105814;27;20514;-76
2022/09/28 14:08:25;;;;;;;0.80;0.80;;;;;;;;;;5121572;27;20439;-73
2022/09/28 14:10:55;;;;;;;0.70;0.70;;;;;;;;;;5111278;27;20441;-73
2022/09/28 14:13:41;;;;;;;0.70;0.60;;;;;;;;;;5119201;27;20452;-75
2022/09/28 14:16:22;;;;;;;0.70;0.70;;;;;;;;;;5129187;27;20455;-75
2022/09/28 14:18:53;;;;;;;0.70;0.70;;;;;;;;;;5107636;27;20481;-74
2022/09/28 14:21:39;;;;;;;0.70;0.70;;;;;;;;;;5124329;27;20501;-74
2022/09/28 14:24:12;;;;;;;0.70;0.70;;;;;;;;;;5126165;27;20485;-74
2022/09/28 14:27:01;;;;;;;0.70;0.70;;;;;;;;;;5100569;27;20505;-76
2022/09/28 14:29:35;;;;;;;0.70;0.70;;;;;;;;;;5139223;27;20510;-74
2022/09/28 14:32:03;;;;;;;0.70;0.70;;;;;;;;;;5128433;27;20440;-74
2022/09/28 14:34:33;;;;;;;0.70;0.70;;;;;;;;;;5118858;27;20461;-74
2022/09/28 14:43:02;;;;;;;0.70;0.60;;;;;;;;;;5123253;27;20466;-73
2022/09/28 14:45:37;;;;;;;0.70;0.60;;;;;;;;;;5113657;27;20483;-76
2022/09/28 14:48:18;;;;;;;0.70;0.70;;;;;;;;;;5141875;27;20447;-76
2022/09/28 14:50:46;;;;;;;0.80;0.80;;;;;;;;;;5119516;27;20456;-76
2022/09/28 14:53:18;;;;;;;0.87;0.87;;;;;;;;;;5105637;27;20435;-75
2022/09/28 14:55:49;;;;;;;0.73;0.70;;;;;;;;;;5125362;27;20447;-76
2022/09/28 14:58:18;;;;;;;0.80;0.73;;;;;;;;;;5132279;27;20481;-76
2022/09/28 15:00:47;;;;;;;0.77;0.77;;;;;;;;;;5157738;27;20515;-77
2022/09/28 15:03:15;;;;;;;0.80;0.70;;;;;;;;;;5129524;27;20450;-76
2022/09/28 15:05:45;;;;;;;0.70;0.67;;;;;;;;;;5130392;27;20463;-77
2022/09/28 15:08:13;;;;;;;0.70;0.70;;;;;;;;;;5130499;27;20491;-77
2022/09/28 15:10:44;;;;;;;0.70;0.60;;;;;;;;;;5131103;27;20529;-76
2022/09/28 15:13:18;;;;;;;0.70;0.70;;;;;;;;;;5131217;27;20448;-77
2022/09/28 15:15:49;;;;;;;0.70;0.60;;;;;;;;;;5144133;27;20421;-79
2022/09/28 15:18:26;;;;;;;0.70;0.70;;;;;;;;;;5127030;27;20538;-79
2022/09/28 15:20:55;;;;;;;0.70;0.70;;;;;;;;;;5104697;27;20989;-79
2022/09/28 15:23:24;;;;;;;0.70;0.70;;;;;;;;;;5115130;27;20444;-80
2022/09/28 15:25:54;;;;;;;0.70;0.70;;;;;;;;;;5120388;27;20450;-79
2022/09/28 15:28:23;;;;;;;0.70;0.70;;;;;;;;;;5114927;27;20446;-80
2022/09/28 15:30:57;;;;;;;0.70;0.60;;;;;;;;;;5125742;27;20435;-80
2022/09/28 15:36:17;;;;;;;0.80;0.80;;;;;;;;;;5138744;27;20486;-79
2022/09/28 15:38:50;;;;;;;0.70;0.60;;;;;;;;;;5133151;27;20939;-79
2022/09/28 15:41:22;;;;;;;0.70;0.70;;;;;;;;;;5132959;27;20471;-77
2022/09/28 15:44:07;;;;;;;0.70;0.60;;;;;;;;;;5144400;27;20428;-78
2022/09/28 15:46:38;;;;;;;0.67;0.60;;;;;;;;;;5104021;27;20503;-78
2022/09/28 15:49:06;;;;;;;0.70;0.70;;;;;;;;;;5141966;27;20446;-78